Time;durP1;ratioP1;P1;durP2;ratioP2;P2;SDS_P1;SDS_P2;PMS_P1;PMS_P2;Temp;Humidity;BMP_temperature;BMP_pressure;BME280_temperature;BME280_humidity;BME280_pressure;Samples;Min_cycle;Max_cycle;Signal;HPM_P1;HPM_P2
2022/05/21 00:02:09;;;;;;;;;;;;;;;;;;5066299;28;19908;-61
2022/05/21 00:04:35;;;;;;;;;;;;;;;;;;5067719;28;19912;-60
2022/05/21 00:07:01;;;;;;;;;;;;;;;;;;5067559;28;19908;-61
2022/05/21 00:09:27;;;;;;;;;;;;;;;;;;5067863;28;19905;-60
2022/05/21 00:11:53;;;;;;;;;;;;;;;;;;5072350;28;19962;-62
2022/05/21 00:14:20;;;;;;;;;;;;;;;;;;5071749;28;19905;-60
2022/05/21 00:16:46;;;;;;;;;;;;;;;;;;5071923;28;20395;-60
2022/05/21 00:19:12;;;;;;;;;;;;;;;;;;5072066;28;19947;-60
2022/05/21 00:21:38;;;;;;;;;;;;;;;;;;5071753;28;19958;-61
2022/05/21 00:24:04;;;;;;;;;;;;;;;;;;5071717;28;20436;-60
2022/05/21 00:26:30;;;;;;;;;;;;;;;;;;5071556;28;19915;-60
2022/05/21 00:28:56;;;;;;;;;;;;;;;;;;5072216;28;19927;-60
2022/05/21 00:31:22;;;;;;;;;;;;;;;;;;5072057;28;19965;-60
2022/05/21 00:33:48;;;;;;;;;;;;;;;;;;5071524;28;20428;-60
2022/05/21 00:36:14;;;;;;;;;;;;;;;;;;5071472;28;19915;-61
2022/05/21 00:38:40;;;;;;;;;;;;;;;;;;5071152;28;19997;-61
2022/05/21 00:41:06;;;;;;;;;;;;;;;;;;5071387;28;20256;-61
2022/05/21 00:43:32;;;;;;;;;;;;;;;;;;5071320;28;19911;-61
2022/05/21 00:45:57;;;;;;;;;;;;;;;;;;5071490;28;20334;-61
2022/05/21 00:48:23;;;;;;;;;;;;;;;;;;5071824;28;19934;-61
2022/05/21 00:50:49;;;;;;;;;;;;;;;;;;5071028;28;20422;-61
2022/05/21 00:53:15;;;;;;;;;;;;;;;;;;5070863;28;19908;-62
2022/05/21 00:55:41;;;;;;;;;;;;;;;;;;5071425;28;20326;-61
2022/05/21 01:00:52;;;;;;;;;;;;;;;;;;5070883;28;20336;-61
2022/05/21 01:03:18;;;;;;;;;;;;;;;;;;5070694;28;19904;-61
2022/05/21 01:05:44;;;;;;;;;;;;;;;;;;5070762;28;19908;-61
2022/05/21 01:08:09;;;;;;;;;;;;;;;;;;5070878;28;19904;-61
2022/05/21 01:10:35;;;;;;;;;;;;;;;;;;5071038;28;19909;-61
2022/05/21 01:13:01;;;;;;;;;;;;;;;;;;5070640;28;19962;-61
2022/05/21 01:15:27;;;;;;;;;;;;;;;;;;5071138;28;19916;-61
2022/05/21 01:17:53;;;;;;;;;;;;;;;;;;5070668;28;19934;-61
2022/05/21 01:20:19;;;;;;;;;;;;;;;;;;5070438;28;19912;-61
2022/05/21 01:22:45;;;;;;;;;;;;;;;;;;5070332;28;19911;-61
2022/05/21 01:25:11;;;;;;;;;;;;;;;;;;5070704;28;19908;-61
2022/05/21 01:27:37;;;;;;;;;;;;;;;;;;5070385;28;19908;-61
2022/05/21 01:30:03;;;;;;;;;;;;;;;;;;5070532;28;19909;-61
2022/05/21 01:32:29;;;;;;;;;;;;;;;;;;5071022;28;19973;-61
2022/05/21 01:34:56;;;;;;;;;;;;;;;;;;5070220;28;19905;-61
2022/05/21 01:37:22;;;;;;;;;;;;;;;;;;5070357;28;19904;-61
2022/05/21 01:39:48;;;;;;;;;;;;;;;;;;5070099;28;19910;-61
2022/05/21 01:42:14;;;;;;;;;;;;;;;;;;5070305;28;19916;-61
2022/05/21 01:44:40;;;;;;;;;;;;;;;;;;5070212;28;19987;-61
2022/05/21 01:47:06;;;;;;;;;;;;;;;;;;5070048;28;19908;-61
2022/05/21 01:49:32;;;;;;;;;;;;;;;;;;5070105;28;20294;-62
2022/05/21 01:51:58;;;;;;;;;;;;;;;;;;5070429;28;19909;-61
2022/05/21 01:54:24;;;;;;;;;;;;;;;;;;5070095;28;19916;-61
2022/05/21 01:56:50;;;;;;;;;;;;;;;;;;5069877;28;19912;-61
2022/05/21 01:59:16;;;;;;;;;;;;;;;;;;5068569;28;19905;-61
2022/05/21 02:01:41;;;;;;;;;;;;;;;;;;5068406;28;19950;-61
2022/05/21 02:04:07;;;;;;;;;;;;;;;;;;5070440;28;20307;-61
2022/05/21 02:06:33;;;;;;;;;;;;;;;;;;5068985;28;19908;-61
2022/05/21 02:08:59;;;;;;;;;;;;;;;;;;5069931;28;20341;-61
2022/05/21 02:11:25;;;;;;;;;;;;;;;;;;5069689;28;20189;-61
2022/05/21 02:13:51;;;;;;;;;;;;;;;;;;5069586;28;20461;-61
2022/05/21 02:16:17;;;;;;;;;;;;;;;;;;5069440;28;19905;-61
2022/05/21 02:18:43;;;;;;;;;;;;;;;;;;5069430;28;20333;-61
2022/05/21 02:21:09;;;;;;;;;;;;;;;;;;5070038;28;19904;-61
2022/05/21 02:23:35;;;;;;;;;;;;;;;;;;5070167;28;19950;-61
2022/05/21 02:26:01;;;;;;;;;;;;;;;;;;5069346;28;19920;-61
2022/05/21 02:28:26;;;;;;;;;;;;;;;;;;5069226;28;19904;-61
2022/05/21 02:30:52;;;;;;;;;;;;;;;;;;5069250;28;19999;-61
2022/05/21 02:33:18;;;;;;;;;;;;;;;;;;5068423;28;19905;-61
2022/05/21 02:35:44;;;;;;;;;;;;;;;;;;5069143;28;19905;-61
2022/05/21 02:40:55;;;;;;;;;;;;;;;;;;5068971;28;19950;-61
2022/05/21 02:43:21;;;;;;;;;;;;;;;;;;5069015;28;19904;-61
2022/05/21 02:45:46;;;;;;;;;;;;;;;;;;5068726;28;19958;-61
2022/05/21 02:48:12;;;;;;;;;;;;;;;;;;5068954;28;19932;-61
2022/05/21 02:50:38;;;;;;;;;;;;;;;;;;5069406;28;19904;-61
2022/05/21 02:53:04;;;;;;;;;;;;;;;;;;5068671;28;19905;-61
2022/05/21 02:55:30;;;;;;;;;;;;;;;;;;5068857;28;20326;-61
2022/05/21 02:57:56;;;;;;;;;;;;;;;;;;5068751;28;19930;-61
2022/05/21 03:00:22;;;;;;;;;;;;;;;;;;5068506;28;20371;-61
2022/05/21 03:02:48;;;;;;;;;;;;;;;;;;5068691;28;20050;-61
2022/05/21 03:05:14;;;;;;;;;;;;;;;;;;5068812;28;20348;-61
2022/05/21 03:07:39;;;;;;;;;;;;;;;;;;5069167;28;19908;-61
2022/05/21 03:10:21;;;;;;;;;;;;;;;;;;5068679;28;20390;-61
2022/05/21 03:12:46;;;;;;;;;;;;;;;;;;5068421;28;19904;-61
2022/05/21 03:15:12;;;;;;;;;;;;;;;;;;5068690;28;19911;-61
2022/05/21 03:17:38;;;;;;;;;;;;;;;;;;5069082;28;19904;-61
2022/05/21 03:20:04;;;;;;;;;;;;;;;;;;5068434;28;19905;-61
2022/05/21 03:22:30;;;;;;;;;;;;;;;;;;5068411;28;20356;-61
2022/05/21 03:24:56;;;;;;;;;;;;;;;;;;5068446;28;19904;-61
2022/05/21 03:27:22;;;;;;;;;;;;;;;;;;5068098;28;19952;-61
2022/05/21 03:29:48;;;;;;;;;;;;;;;;;;5068279;28;19931;-61
2022/05/21 03:32:15;;;;;;;;;;;;;;;;;;5068265;28;19904;-61
2022/05/21 03:34:41;;;;;;;;;;;;;;;;;;5068940;28;19912;-61
2022/05/21 03:37:07;;;;;;;;;;;;;;;;;;5068187;28;19900;-61
2022/05/21 03:39:33;;;;;;;;;;;;;;;;;;5068104;28;19944;-61
2022/05/21 03:41:59;;;;;;;;;;;;;;;;;;5068000;28;20367;-61
2022/05/21 03:44:27;;;;;;;;;;;;;;;;;;5068113;28;19905;-61
2022/05/21 03:46:52;;;;;;;;;;;;;;;;;;5068151;28;19908;-61
2022/05/21 03:49:19;;;;;;;;;;;;;;;;;;5068025;28;19950;-61
2022/05/21 03:51:44;;;;;;;;;;;;;;;;;;5068171;28;20298;-62
2022/05/21 03:54:10;;;;;;;;;;;;;;;;;;5068579;28;19912;-61
2022/05/21 03:56:36;;;;;;;;;;;;;;;;;;5067846;28;19911;-61
2022/05/21 03:59:03;;;;;;;;;;;;;;;;;;5067004;28;19908;-61
2022/05/21 04:01:29;;;;;;;;;;;;;;;;;;5068444;28;19908;-61
2022/05/21 04:03:56;;;;;;;;;;;;;;;;;;5067403;28;19911;-61
2022/05/21 04:06:22;;;;;;;;;;;;;;;;;;5067892;28;19908;-61
2022/05/21 04:08:49;;;;;;;;;;;;;;;;;;5068045;28;19908;-61
2022/05/21 04:11:15;;;;;;;;;;;;;;;;;;5067923;28;19916;-61
2022/05/21 04:13:41;;;;;;;;;;;;;;;;;;5067871;28;19905;-61
2022/05/21 04:16:07;;;;;;;;;;;;;;;;;;5068486;28;20440;-61
2022/05/21 04:18:33;;;;;;;;;;;;;;;;;;5067915;28;19950;-61
2022/05/21 04:20:58;;;;;;;;;;;;;;;;;;5068179;28;20153;-61
2022/05/21 04:23:24;;;;;;;;;;;;;;;;;;5067790;28;19904;-61
2022/05/21 04:25:50;;;;;;;;;;;;;;;;;;5067666;28;19911;-61
2022/05/21 04:28:16;;;;;;;;;;;;;;;;;;5067569;28;19911;-61
2022/05/21 04:30:42;;;;;;;;;;;;;;;;;;5067770;28;19912;-61
2022/05/21 04:33:08;;;;;;;;;;;;;;;;;;5068500;28;19904;-61
2022/05/21 04:38:18;;;;;;;;;;;;;;;;;;5067568;28;19927;-61
2022/05/21 04:40:44;;;;;;;;;;;;;;;;;;5067655;28;20399;-61
2022/05/21 04:43:10;;;;;;;;;;;;;;;;;;5068288;28;20313;-61
2022/05/21 04:45:36;;;;;;;;;;;;;;;;;;5067593;28;20296;-61
2022/05/21 04:48:02;;;;;;;;;;;;;;;;;;5067602;28;20008;-61
2022/05/21 04:50:28;;;;;;;;;;;;;;;;;;5067467;28;19911;-61
2022/05/21 04:52:54;;;;;;;;;;;;;;;;;;5067472;28;19908;-59
2022/05/21 04:55:20;;;;;;;;;;;;;;;;;;5067494;28;19913;-61
2022/05/21 04:57:46;;;;;;;;;;;;;;;;;;5070670;28;19951;-61
2022/05/21 05:00:11;;;;;;;;;;;;;;;;;;5071682;28;19936;-61
2022/05/21 05:02:37;;;;;;;;;;;;;;;;;;5070845;28;19904;-61
2022/05/21 05:05:03;;;;;;;;;;;;;;;;;;5071348;28;19923;-61
2022/05/21 05:07:29;;;;;;;;;;;;;;;;;;5070843;28;20454;-61
2022/05/21 05:09:55;;;;;;;;;;;;;;;;;;5070892;28;19911;-61
2022/05/21 05:12:21;;;;;;;;;;;;;;;;;;5069480;28;19950;-61
2022/05/21 05:14:47;;;;;;;;;;;;;;;;;;5070711;28;20306;-61
2022/05/21 05:17:13;;;;;;;;;;;;;;;;;;5070026;28;19900;-61
2022/05/21 05:19:39;;;;;;;;;;;;;;;;;;5071279;28;19904;-61
2022/05/21 05:22:05;;;;;;;;;;;;;;;;;;5070492;28;19911;-61
2022/05/21 05:24:31;;;;;;;;;;;;;;;;;;5070835;28;20364;-61
2022/05/21 05:26:57;;;;;;;;;;;;;;;;;;5070376;28;19913;-61
2022/05/21 05:29:22;;;;;;;;;;;;;;;;;;5070529;28;20295;-61
2022/05/21 05:31:48;;;;;;;;;;;;;;;;;;5070479;28;19941;-61
2022/05/21 05:34:14;;;;;;;;;;;;;;;;;;5070352;28;19912;-61
2022/05/21 05:36:40;;;;;;;;;;;;;;;;;;5070921;28;20337;-61
2022/05/21 05:39:06;;;;;;;;;;;;;;;;;;5070488;28;19940;-61
2022/05/21 05:41:32;;;;;;;;;;;;;;;;;;5070320;28;19986;-61
2022/05/21 05:43:58;;;;;;;;;;;;;;;;;;5070134;28;19904;-61
2022/05/21 05:46:24;;;;;;;;;;;;;;;;;;5070190;28;19952;-61
2022/05/21 05:48:50;;;;;;;;;;;;;;;;;;5070092;28;20292;-61
2022/05/21 05:51:19;;;;;;;;;;;;;;;;;;5069923;28;20158;-61
2022/05/21 05:53:45;;;;;;;;;;;;;;;;;;5070733;28;19952;-61
2022/05/21 05:56:10;;;;;;;;;;;;;;;;;;5070610;28;19947;-61
2022/05/21 06:01:23;;;;;;;;;;;;;;;;;;5070305;28;19950;-61
2022/05/21 06:03:49;;;;;;;;;;;;;;;;;;5069002;28;19950;-61
2022/05/21 06:06:14;;;;;;;;;;;;;;;;;;5069734;28;19909;-61
2022/05/21 06:08:40;;;;;;;;;;;;;;;;;;5069411;28;19908;-61
2022/05/21 06:11:06;;;;;;;;;;;;;;;;;;5069803;28;20405;-61
2022/05/21 06:13:33;;;;;;;;;;;;;;;;;;5069659;28;19958;-61
2022/05/21 06:16:00;;;;;;;;;;;;;;;;;;5069471;28;20348;-61
2022/05/21 06:18:25;;;;;;;;;;;;;;;;;;5069577;28;19904;-61
2022/05/21 06:20:51;;;;;;;;;;;;;;;;;;5069507;28;19911;-61
2022/05/21 06:23:17;;;;;;;;;;;;;;;;;;5069679;28;19905;-61
2022/05/21 06:25:43;;;;;;;;;;;;;;;;;;5069644;28;19910;-61
2022/05/21 06:28:09;;;;;;;;;;;;;;;;;;5069834;28;20368;-61
2022/05/21 06:30:35;;;;;;;;;;;;;;;;;;5069185;28;19905;-61
2022/05/21 06:33:01;;;;;;;;;;;;;;;;;;5069222;28;20303;-61
2022/05/21 06:35:27;;;;;;;;;;;;;;;;;;5069216;28;19942;-61
2022/05/21 06:37:53;;;;;;;;;;;;;;;;;;5069342;28;19904;-61
2022/05/21 06:40:19;;;;;;;;;;;;;;;;;;5069182;28;19911;-61
2022/05/21 06:42:46;;;;;;;;;;;;;;;;;;5069141;28;19904;-61
2022/05/21 06:45:12;;;;;;;;;;;;;;;;;;5069602;28;20366;-60
2022/05/21 06:47:38;;;;;;;;;;;;;;;;;;5068879;28;19963;-60
2022/05/21 06:50:04;;;;;;;;;;;;;;;;;;5068799;28;19912;-61
2022/05/21 06:52:30;;;;;;;;;;;;;;;;;;5068919;28;19911;-61
2022/05/21 06:54:56;;;;;;;;;;;;;;;;;;5068599;28;19917;-61
2022/05/21 06:57:26;;;;;;;;;;;;;;;;;;5068818;28;19911;-61
2022/05/21 06:59:52;;;;;;;;;;;;;;;;;;5068617;28;20307;-61
2022/05/21 07:02:18;;;;;;;;;;;;;;;;;;5068728;28;19999;-61
2022/05/21 07:07:43;;;;;;;;;;;;;;;;;;5068719;28;20397;-61
2022/05/21 07:10:09;;;;;;;;;;;;;;;;;;5069147;28;19910;-61
2022/05/21 07:12:35;;;;;;;;;;;;;;;;;;5068180;28;20377;-61
2022/05/21 07:15:01;;;;;;;;;;;;;;;;;;5068585;28;19904;-61
2022/05/21 07:17:27;;;;;;;;;;;;;;;;;;5068323;28;19905;-60
2022/05/21 07:19:53;;;;;;;;;;;;;;;;;;5067794;28;19904;-61
2022/05/21 07:22:18;;;;;;;;;;;;;;;;;;5068282;28;19904;-61
2022/05/21 07:24:44;;;;;;;;;;;;;;;;;;5068861;28;19909;-61
2022/05/21 07:27:14;;;;;;;;;;;;;;;;;;5068635;28;19958;-61
2022/05/21 07:29:40;;;;;;;;;;;;;;;;;;5068842;28;20321;-61
2022/05/21 07:32:06;;;;;;;;;;;;;;;;;;5067946;28;19953;-61
2022/05/21 07:34:32;;;;;;;;;;;;;;;;;;5068077;28;19931;-60
2022/05/21 07:36:58;;;;;;;;;;;;;;;;;;5068093;28;19900;-61
2022/05/21 07:39:24;;;;;;;;;;;;;;;;;;5067749;28;19912;-60
2022/05/21 07:41:50;;;;;;;;;;;;;;;;;;5068031;28;19999;-60
2022/05/21 07:44:16;;;;;;;;;;;;;;;;;;5068625;28;19904;-60
2022/05/21 07:46:41;;;;;;;;;;;;;;;;;;5068645;28;19912;-61
2022/05/21 07:49:09;;;;;;;;;;;;;;;;;;5067998;28;19995;-61
2022/05/21 07:51:35;;;;;;;;;;;;;;;;;;5067980;28;20382;-61
2022/05/21 07:54:01;;;;;;;;;;;;;;;;;;5067922;28;20374;-60
2022/05/21 07:56:29;;;;;;;;;;;;;;;;;;5068058;28;19947;-60
2022/05/21 07:58:55;;;;;;;;;;;;;;;;;;5068123;28;19904;-60
2022/05/21 08:01:22;;;;;;;;;;;;;;;;;;5067989;28;19911;-60
2022/05/21 08:03:48;;;;;;;;;;;;;;;;;;5067779;28;19904;-60
2022/05/21 08:06:13;;;;;;;;;;;;;;;;;;5068540;28;19912;-60
2022/05/21 08:08:39;;;;;;;;;;;;;;;;;;5067786;28;19974;-60
2022/05/21 08:11:05;;;;;;;;;;;;;;;;;;5068128;28;19904;-60
2022/05/21 08:13:31;;;;;;;;;;;;;;;;;;5067868;28;19912;-60
2022/05/21 08:15:57;;;;;;;;;;;;;;;;;;5067839;28;19957;-60
2022/05/21 08:18:24;;;;;;;;;;;;;;;;;;5067915;28;20359;-60
2022/05/21 08:20:53;;;;;;;;;;;;;;;;;;5067890;28;19912;-60
2022/05/21 08:28:49;;;;;;;;;;;;;;;;;;5067934;28;20394;-60
2022/05/21 08:31:15;;;;;;;;;;;;;;;;;;5069445;28;19911;-60
2022/05/21 08:33:41;;;;;;;;;;;;;;;;;;5071373;28;19905;-60
2022/05/21 08:36:06;;;;;;;;;;;;;;;;;;5071479;28;19969;-60
2022/05/21 08:38:32;;;;;;;;;;;;;;;;;;5071373;28;19904;-60
2022/05/21 08:40:58;;;;;;;;;;;;;;;;;;5071381;28;20021;-60
2022/05/21 08:43:24;;;;;;;;;;;;;;;;;;5071466;28;19904;-60
2022/05/21 08:45:50;;;;;;;;;;;;;;;;;;5071683;28;19904;-60
2022/05/21 08:48:16;;;;;;;;;;;;;;;;;;5071716;28;19905;-60
2022/05/21 08:50:42;;;;;;;;;;;;;;;;;;5071149;28;19911;-60
2022/05/21 08:53:08;;;;;;;;;;;;;;;;;;5071083;28;19904;-60
2022/05/21 08:55:34;;;;;;;;;;;;;;;;;;5071208;28;19909;-60
2022/05/21 08:57:59;;;;;;;;;;;;;;;;;;5071062;28;19904;-60
2022/05/21 09:00:25;;;;;;;;;;;;;;;;;;5071166;28;20012;-60
2022/05/21 09:02:52;;;;;;;;;;;;;;;;;;5070689;28;19958;-60
2022/05/21 09:05:18;;;;;;;;;;;;;;;;;;5071453;28;19950;-60
2022/05/21 09:07:44;;;;;;;;;;;;;;;;;;5070825;28;19912;-60
2022/05/21 09:10:10;;;;;;;;;;;;;;;;;;5070972;28;20203;-60
2022/05/21 09:12:36;;;;;;;;;;;;;;;;;;5070771;28;20260;-60
2022/05/21 09:15:02;;;;;;;;;;;;;;;;;;5070648;28;19912;-61
2022/05/21 09:17:28;;;;;;;;;;;;;;;;;;5070865;28;19904;-60
2022/05/21 09:19:55;;;;;;;;;;;;;;;;;;5070656;28;20139;-61
2022/05/21 09:22:21;;;;;;;;;;;;;;;;;;5071345;28;19930;-60
2022/05/21 09:24:47;;;;;;;;;;;;;;;;;;5071288;28;19995;-60
2022/05/21 09:27:12;;;;;;;;;;;;;;;;;;5070293;28;20382;-60
2022/05/21 09:29:38;;;;;;;;;;;;;;;;;;5070477;28;19904;-60
2022/05/21 09:32:04;;;;;;;;;;;;;;;;;;5070391;28;20386;-60
2022/05/21 09:34:30;;;;;;;;;;;;;;;;;;5070633;28;19959;-60
2022/05/21 09:36:56;;;;;;;;;;;;;;;;;;5070394;28;20401;-60
2022/05/21 09:39:22;;;;;;;;;;;;;;;;;;5070602;28;20341;-60
2022/05/21 09:41:48;;;;;;;;;;;;;;;;;;5070616;28;19935;-60
2022/05/21 09:46:58;;;;;;;;;;;;;;;;;;5069982;28;19938;-60
2022/05/21 09:49:24;;;;;;;;;;;;;;;;;;5070175;28;20357;-61
2022/05/21 09:51:50;;;;;;;;;;;;;;;;;;5070638;28;19904;-60
2022/05/21 09:54:16;;;;;;;;;;;;;;;;;;5069896;28;19962;-60
2022/05/21 09:56:42;;;;;;;;;;;;;;;;;;5069960;28;20307;-60
2022/05/21 09:59:08;;;;;;;;;;;;;;;;;;5069822;28;19904;-60
2022/05/21 10:01:36;;;;;;;;;;;;;;;;;;5070012;28;20049;-60
2022/05/21 10:04:02;;;;;;;;;;;;;;;;;;5069759;28;19911;-60
2022/05/21 10:06:28;;;;;;;;;;;;;;;;;;5069730;28;20003;-60
2022/05/21 10:11:44;;;;;;;;;;;;;;;;;;5059024;28;19904;-60
2022/05/21 10:14:10;;;;;;;;;;;;;;;;;;5069566;28;19911;-61
2022/05/21 10:16:36;;;;;;;;;;;;;;;;;;5069548;28;19999;-60
2022/05/21 10:19:02;;;;;;;;;;;;;;;;;;5069552;28;19926;-60
2022/05/21 10:21:28;;;;;;;;;;;;;;;;;;5069468;28;19915;-61
2022/05/21 10:23:54;;;;;;;;;;;;;;;;;;5069983;28;19913;-60
2022/05/21 10:26:20;;;;;;;;;;;;;;;;;;5069970;28;19970;-60
2022/05/21 10:28:45;;;;;;;;;;;;;;;;;;5069186;28;19928;-60
2022/05/21 10:31:13;;;;;;;;;;;;;;;;;;5069232;28;19901;-60
2022/05/21 10:33:40;;;;;;;;;;;;;;;;;;5069174;28;19904;-60
2022/05/21 10:36:06;;;;;;;;;;;;;;;;;;5069275;28;20287;-60
2022/05/21 10:38:31;;;;;;;;;;;;;;;;;;5068841;28;19904;-60
2022/05/21 10:40:57;;;;;;;;;;;;;;;;;;5068995;28;19911;-61
2022/05/21 10:43:23;;;;;;;;;;;;;;;;;;5069625;28;19912;-60
2022/05/21 10:45:49;;;;;;;;;;;;;;;;;;5069069;28;19901;-60
2022/05/21 10:48:15;;;;;;;;;;;;;;;;;;5068785;28;20006;-61
2022/05/21 10:50:41;;;;;;;;;;;;;;;;;;5068877;28;19915;-61
2022/05/21 10:53:07;;;;;;;;;;;;;;;;;;5068496;28;19910;-60
2022/05/21 10:55:33;;;;;;;;;;;;;;;;;;5068437;28;19911;-61
2022/05/21 10:57:59;;;;;;;;;;;;;;;;;;5068765;28;19911;-61
2022/05/21 11:00:25;;;;;;;;;;;;;;;;;;5069344;28;19908;-60
2022/05/21 11:02:51;;;;;;;;;;;;;;;;;;5068919;28;19999;-60
2022/05/21 11:05:17;;;;;;;;;;;;;;;;;;5068754;28;19970;-60
2022/05/21 11:07:43;;;;;;;;;;;;;;;;;;5068487;28;19914;-60
2022/05/21 11:10:09;;;;;;;;;;;;;;;;;;5068628;28;19904;-60
2022/05/21 11:12:35;;;;;;;;;;;;;;;;;;5068553;28;20317;-60
2022/05/21 11:15:01;;;;;;;;;;;;;;;;;;5068328;28;20151;-61
2022/05/21 11:17:27;;;;;;;;;;;;;;;;;;5068971;28;20386;-61
2022/05/21 11:19:53;;;;;;;;;;;;;;;;;;5069046;28;19905;-61
2022/05/21 11:22:18;;;;;;;;;;;;;;;;;;5068427;28;19904;-61
2022/05/21 11:24:45;;;;;;;;;;;;;;;;;;5068356;28;20291;-61
2022/05/21 11:27:11;;;;;;;;;;;;;;;;;;5068242;28;20477;-61
2022/05/21 11:29:37;;;;;;;;;;;;;;;;;;5068384;28;19904;-60
2022/05/21 11:37:32;;;;;;;;;;;;;;;;;;5068143;28;19912;-61
2022/05/21 11:39:59;;;;;;;;;;;;;;;;;;5068696;28;19904;-60
2022/05/21 11:42:25;;;;;;;;;;;;;;;;;;5069002;28;20382;-61
2022/05/21 11:47:23;;;;;;;;;;;;;;;;;;5067972;28;19915;-60
2022/05/21 11:49:49;;;;;;;;;;;;;;;;;;5068041;28;19912;-61
2022/05/21 11:52:15;;;;;;;;;;;;;;;;;;5067932;28;19957;-61
2022/05/21 11:54:41;;;;;;;;;;;;;;;;;;5067965;28;19912;-61
2022/05/21 11:57:07;;;;;;;;;;;;;;;;;;5068253;28;19900;-61
2022/05/21 11:59:33;;;;;;;;;;;;;;;;;;5068101;28;19916;-61
2022/05/21 12:02:00;;;;;;;;;;;;;;;;;;5068511;28;19900;-61
2022/05/21 12:04:26;;;;;;;;;;;;;;;;;;5068411;28;19905;-61
2022/05/21 12:06:52;;;;;;;;;;;;;;;;;;5071927;28;20294;-61
2022/05/21 12:09:18;;;;;;;;;;;;;;;;;;5072084;28;19904;-61
2022/05/21 12:11:44;;;;;;;;;;;;;;;;;;5071962;28;19905;-61
2022/05/21 12:14:10;;;;;;;;;;;;;;;;;;5071968;28;20375;-61
2022/05/21 12:16:36;;;;;;;;;;;;;;;;;;5071767;28;19909;-61
2022/05/21 12:19:02;;;;;;;;;;;;;;;;;;5071846;28;20006;-61
2022/05/21 12:21:36;;;;;;;;;;;;;;;;;;5072482;28;19905;-61
2022/05/21 12:24:02;;;;;;;;;;;;;;;;;;5071694;28;19932;-61
2022/05/21 12:26:30;;;;;;;;;;;;;;;;;;5072252;28;20299;-61
2022/05/21 12:28:55;;;;;;;;;;;;;;;;;;5071856;28;20035;-61
2022/05/21 12:31:21;;;;;;;;;;;;;;;;;;5071511;28;20387;-61
2022/05/21 12:33:47;;;;;;;;;;;;;;;;;;5071643;28;19904;-61
2022/05/21 12:36:13;;;;;;;;;;;;;;;;;;5071485;28;19916;-61
2022/05/21 12:38:39;;;;;;;;;;;;;;;;;;5071681;28;19912;-61
2022/05/21 12:41:05;;;;;;;;;;;;;;;;;;5071406;28;20162;-61
2022/05/21 12:43:31;;;;;;;;;;;;;;;;;;5071864;28;19908;-61
2022/05/21 12:45:57;;;;;;;;;;;;;;;;;;5071500;28;19923;-61
2022/05/21 12:48:23;;;;;;;;;;;;;;;;;;5071217;28;19912;-61
2022/05/21 12:50:49;;;;;;;;;;;;;;;;;;5071135;28;19904;-61
2022/05/21 12:53:15;;;;;;;;;;;;;;;;;;5071306;28;19934;-61
2022/05/21 12:55:41;;;;;;;;;;;;;;;;;;5071513;28;19999;-61
2022/05/21 12:58:10;;;;;;;;;;;;;;;;;;5070994;28;19984;-61
2022/05/21 13:00:36;;;;;;;;;;;;;;;;;;5070988;28;20366;-61
2022/05/21 13:03:02;;;;;;;;;;;;;;;;;;5071675;28;19904;-61
2022/05/21 13:05:28;;;;;;;;;;;;;;;;;;5071039;28;19904;-61
2022/05/21 13:07:55;;;;;;;;;;;;;;;;;;5070990;28;19912;-61
2022/05/21 13:10:20;;;;;;;;;;;;;;;;;;5070916;28;19942;-61
2022/05/21 13:12:46;;;;;;;;;;;;;;;;;;5070747;28;19955;-61
2022/05/21 13:15:12;;;;;;;;;;;;;;;;;;5070623;28;20062;-61
2022/05/21 13:17:38;;;;;;;;;;;;;;;;;;5070228;28;19904;-61
2022/05/21 13:20:09;;;;;;;;;;;;;;;;;;5071377;28;19915;-61
2022/05/21 13:22:35;;;;;;;;;;;;;;;;;;5070800;28;19985;-61
2022/05/21 13:25:01;;;;;;;;;;;;;;;;;;5071210;28;19958;-61
2022/05/21 13:27:27;;;;;;;;;;;;;;;;;;5070245;28;20398;-61
2022/05/21 13:29:53;;;;;;;;;;;;;;;;;;5070478;28;19911;-61
2022/05/21 13:32:19;;;;;;;;;;;;;;;;;;5070445;28;20310;-61
2022/05/21 13:34:45;;;;;;;;;;;;;;;;;;5070542;28;19905;-61
2022/05/21 13:37:11;;;;;;;;;;;;;;;;;;5070382;28;19907;-61
2022/05/21 13:39:37;;;;;;;;;;;;;;;;;;5070071;28;19904;-61
2022/05/21 13:42:03;;;;;;;;;;;;;;;;;;5071270;28;20562;-61
2022/05/21 13:44:29;;;;;;;;;;;;;;;;;;5070196;28;19958;-61
2022/05/21 13:46:55;;;;;;;;;;;;;;;;;;5070202;28;19912;-61
2022/05/21 13:49:21;;;;;;;;;;;;;;;;;;5070113;28;19905;-61
2022/05/21 13:51:47;;;;;;;;;;;;;;;;;;5070412;28;19995;-61
2022/05/21 13:54:13;;;;;;;;;;;;;;;;;;5069908;28;19912;-61
2022/05/21 13:56:39;;;;;;;;;;;;;;;;;;5069914;28;20398;-61
2022/05/21 13:59:05;;;;;;;;;;;;;;;;;;5070525;28;19905;-61
2022/05/21 14:01:31;;;;;;;;;;;;;;;;;;5068619;28;20295;-61
2022/05/21 14:03:57;;;;;;;;;;;;;;;;;;5069835;28;20444;-61
2022/05/21 14:06:22;;;;;;;;;;;;;;;;;;5069810;28;20031;-61
2022/05/21 14:08:48;;;;;;;;;;;;;;;;;;5069779;28;19904;-61
2022/05/21 14:11:14;;;;;;;;;;;;;;;;;;5069606;28;19974;-61
2022/05/21 14:13:40;;;;;;;;;;;;;;;;;;5069628;28;19904;-61
2022/05/21 14:16:06;;;;;;;;;;;;;;;;;;5070099;28;19911;-61
2022/05/21 14:18:32;;;;;;;;;;;;;;;;;;5069916;28;20322;-61
2022/05/21 14:20:58;;;;;;;;;;;;;;;;;;5069503;28;19908;-61
2022/05/21 14:23:25;;;;;;;;;;;;;;;;;;5069445;28;19904;-61
2022/05/21 14:25:51;;;;;;;;;;;;;;;;;;5069382;28;19943;-61
2022/05/21 14:28:17;;;;;;;;;;;;;;;;;;5068702;28;19936;-61
2022/05/21 14:30:43;;;;;;;;;;;;;;;;;;5068983;28;20394;-61
2022/05/21 14:33:09;;;;;;;;;;;;;;;;;;5069095;28;19958;-61
2022/05/21 14:35:35;;;;;;;;;;;;;;;;;;5069833;28;19911;-61
2022/05/21 14:38:02;;;;;;;;;;;;;;;;;;5069278;28;19905;-61
2022/05/21 14:40:28;;;;;;;;;;;;;;;;;;5069068;28;20402;-61
2022/05/21 14:42:54;;;;;;;;;;;;;;;;;;5069159;28;19911;-61
2022/05/21 14:45:20;;;;;;;;;;;;;;;;;;5069122;28;19904;-61
2022/05/21 14:47:52;;;;;;;;;;;;;;;;;;5068795;28;19915;-61
2022/05/21 14:53:02;;;;;;;;;;;;;;;;;;5068723;28;19911;-61
2022/05/21 14:55:29;;;;;;;;;;;;;;;;;;5069118;28;20151;-61
2022/05/21 14:57:56;;;;;;;;;;;;;;;;;;5068937;28;19911;-61
2022/05/21 15:00:22;;;;;;;;;;;;;;;;;;5068768;28;19905;-61
2022/05/21 15:02:48;;;;;;;;;;;;;;;;;;5069053;28;20329;-61
2022/05/21 15:05:14;;;;;;;;;;;;;;;;;;5068689;28;19956;-61
2022/05/21 15:07:40;;;;;;;;;;;;;;;;;;5069191;28;20001;-61
2022/05/21 15:10:06;;;;;;;;;;;;;;;;;;5069213;28;20033;-61
2022/05/21 15:12:33;;;;;;;;;;;;;;;;;;5068763;28;19904;-61
2022/05/21 15:15:01;;;;;;;;;;;;;;;;;;5068388;28;20423;-61
2022/05/21 15:17:26;;;;;;;;;;;;;;;;;;5068522;28;20119;-61
2022/05/21 15:19:52;;;;;;;;;;;;;;;;;;5068411;28;19904;-61
2022/05/21 15:22:18;;;;;;;;;;;;;;;;;;5068463;28;20384;-61
2022/05/21 15:24:44;;;;;;;;;;;;;;;;;;5068551;28;19904;-61
2022/05/21 15:27:10;;;;;;;;;;;;;;;;;;5068778;28;20012;-61
2022/05/21 15:29:36;;;;;;;;;;;;;;;;;;5068404;28;19950;-61
2022/05/21 15:32:03;;;;;;;;;;;;;;;;;;5068291;28;20002;-62
2022/05/21 15:34:29;;;;;;;;;;;;;;;;;;5068241;28;19904;-61
2022/05/21 15:36:55;;;;;;;;;;;;;;;;;;5068411;28;19911;-62
2022/05/21 15:39:21;;;;;;;;;;;;;;;;;;5068324;28;20485;-61
2022/05/21 15:41:46;;;;;;;;;;;;;;;;;;5067971;28;19905;-61
2022/05/21 15:44:12;;;;;;;;;;;;;;;;;;5068424;28;20055;-61
2022/05/21 15:46:38;;;;;;;;;;;;;;;;;;5068671;28;20034;-61
2022/05/21 15:49:04;;;;;;;;;;;;;;;;;;5068118;28;19904;-61
2022/05/21 15:51:30;;;;;;;;;;;;;;;;;;5068116;28;19904;-62
2022/05/21 15:53:56;;;;;;;;;;;;;;;;;;5067959;28;19916;-62
2022/05/21 15:56:22;;;;;;;;;;;;;;;;;;5068385;28;19904;-62
2022/05/21 15:58:48;;;;;;;;;;;;;;;;;;5067930;28;19905;-61
2022/05/21 16:01:14;;;;;;;;;;;;;;;;;;5067826;28;19908;-62
2022/05/21 16:03:40;;;;;;;;;;;;;;;;;;5068313;28;19943;-62
2022/05/21 16:06:06;;;;;;;;;;;;;;;;;;5068181;28;19981;-61
2022/05/21 16:08:33;;;;;;;;;;;;;;;;;;5067565;28;19904;-62
2022/05/21 16:10:59;;;;;;;2.50;1.40;;;;;;;;;;5066997;28;20447;-61
2022/05/21 16:13:25;;;;;;;2.03;1.40;;;;;;;;;;5067138;28;20120;-60
2022/05/21 16:15:52;;;;;;;1.77;1.60;;;;;;;;;;5067254;28;20408;-60
2022/05/21 16:18:18;;;;;;;2.83;1.42;;;;;;;;;;5066995;28;20430;-60
2022/05/21 16:20:45;;;;;;;2.10;1.30;;;;;;;;;;5068169;28;20027;-60
2022/05/21 16:23:12;;;;;;;1.95;1.48;;;;;;;;;;5067478;28;20104;-60
2022/05/21 16:25:38;;;;;;;2.15;1.40;;;;;;;;;;5066864;28;20099;-61
2022/05/21 16:28:05;;;;;;;2.40;1.58;;;;;;;;;;5067006;28;20204;-60
2022/05/21 16:30:31;;;;;;;2.30;1.70;;;;;;;;;;5066914;28;20062;-60
2022/05/21 16:32:57;;;;;;;2.40;1.83;;;;;;;;;;5066574;28;20024;-60
2022/05/21 16:35:24;;;;;;;2.22;1.77;;;;;;;;;;5066764;28;20017;-60
2022/05/21 16:37:50;;;;;;;2.83;1.20;;;;;;;;;;5066648;28;20047;-60
2022/05/21 16:40:16;;;;;;;1.70;1.48;;;;;;;;;;5066640;28;20169;-60
2022/05/21 16:42:43;;;;;;;1.48;1.20;;;;;;;;;;5067253;28;20085;-60
2022/05/21 16:45:12;;;;;;;1.60;1.25;;;;;;;;;;5066397;28;20077;-60
2022/05/21 16:47:38;;;;;;;1.67;1.15;;;;;;;;;;5066538;28;20107;-60
2022/05/21 16:50:04;;;;;;;2.15;1.10;;;;;;;;;;5066603;28;20567;-60
2022/05/21 16:52:30;;;;;;;1.52;1.40;;;;;;;;;;5067922;28;20035;-61
2022/05/21 16:54:57;;;;;;;2.28;1.50;;;;;;;;;;5070058;28;20407;-60
2022/05/21 16:57:23;;;;;;;1.23;1.13;;;;;;;;;;5070138;28;20033;-60
2022/05/21 16:59:49;;;;;;;1.15;1.05;;;;;;;;;;5070071;28;20122;-61
2022/05/21 17:02:15;;;;;;;1.42;1.33;;;;;;;;;;5070684;28;20078;-60
2022/05/21 17:04:42;;;;;;;1.80;1.08;;;;;;;;;;5070574;28;20021;-60